Time;durP1;ratioP1;P1;durP2;ratioP2;P2;SDS_P1;SDS_P2;PMS_P1;PMS_P2;Temp;Humidity;BMP_temperature;BMP_pressure;BME280_temperature;BME280_humidity;BME280_pressure;Samples;Min_cycle;Max_cycle;Signal;HPM_P1;HPM_P2
2022/09/22 00:00:58;;;;;;;4.20;2.53;;;;;;;10.15;100.00;96694.00;5049317;28;20217;-76
2022/09/22 00:03:30;;;;;;;2.70;2.47;;;;;;;10.12;100.00;96693.63;5050112;28;20210;-75
2022/09/22 00:06:03;;;;;;;3.17;2.80;;;;;;;10.15;100.00;96694.00;5053864;28;20241;-76
2022/09/22 00:08:32;;;;;;;3.10;2.53;;;;;;;10.20;100.00;96701.47;5053557;28;20221;-76
2022/09/22 00:11:02;;;;;;;4.03;3.00;;;;;;;10.26;100.00;96694.38;5051974;28;20209;-76
2022/09/22 00:13:30;;;;;;;4.33;2.80;;;;;;;10.18;100.00;96690.91;5054210;28;20203;-77
2022/09/22 00:15:57;;;;;;;3.43;2.93;;;;;;;10.08;100.00;96684.31;5052577;28;20229;-75
2022/09/22 00:18:24;;;;;;;4.40;3.30;;;;;;;10.01;100.00;96686.22;5056154;28;20300;-74
2022/09/22 00:20:52;;;;;;;4.57;2.80;;;;;;;10.01;100.00;96675.44;5052733;28;20205;-76
2022/09/22 00:23:20;;;;;;;6.13;3.10;;;;;;;10.07;100.00;96685.34;5056448;28;20287;-76
2022/09/22 00:25:48;;;;;;;4.87;2.90;;;;;;;10.11;100.00;96686.56;5059512;28;20300;-76
2022/09/22 00:28:15;;;;;;;3.77;3.07;;;;;;;10.07;100.00;96679.94;5052935;28;20256;-76
2022/09/22 00:30:43;;;;;;;4.37;3.03;;;;;;;10.05;100.00;96677.47;5049635;28;20313;-75
2022/09/22 00:33:10;;;;;;;4.30;2.73;;;;;;;10.05;100.00;96677.47;5048216;28;20210;-76
2022/09/22 00:35:37;;;;;;;5.80;2.90;;;;;;;9.98;100.00;96673.16;5050469;28;20209;-76
2022/09/22 00:38:06;;;;;;;4.30;2.77;;;;;;;10.01;100.00;96675.44;5053386;28;20209;-76
2022/09/22 00:40:34;;;;;;;3.70;3.23;;;;;;;10.02;100.00;96677.09;5056062;28;20208;-76
2022/09/22 00:43:17;;;;;;;3.73;2.90;;;;;;;10.08;100.00;96681.59;5060340;28;20216;-76
2022/09/22 00:45:46;;;;;;;4.57;2.63;;;;;;;10.11;100.00;96665.00;5064076;28;20222;-77
2022/09/22 00:48:13;;;;;;;3.33;2.80;;;;;;;10.16;100.00;96665.16;5056493;28;20213;-76
2022/09/22 00:50:40;;;;;;;4.27;2.80;;;;;;;10.17;100.00;96664.09;5058519;28;20208;-76
2022/09/22 00:53:12;;;;;;;5.40;3.00;;;;;;;10.12;100.00;96672.84;5051450;28;20225;-76
2022/09/22 00:55:43;;;;;;;4.30;2.67;;;;;;;10.10;100.00;96660.63;5050107;28;20236;-76
2022/09/22 00:58:15;;;;;;;6.50;2.97;;;;;;;10.09;100.00;96667.06;5052828;28;20233;-76
2022/09/22 01:00:42;;;;;;;2.80;2.50;;;;;;;10.05;100.00;96663.16;5049437;28;20221;-76
2022/09/22 01:03:14;;;;;;;4.27;2.80;;;;;;;10.04;100.00;96648.81;5062571;28;20659;-76
2022/09/22 01:05:43;;;;;;;3.83;2.67;;;;;;;10.05;100.00;96655.06;5057377;28;20217;-76
2022/09/22 01:08:13;;;;;;;3.53;2.50;;;;;;;10.00;100.00;96646.81;5059907;28;20208;-76
2022/09/22 01:10:40;;;;;;;3.20;2.80;;;;;;;10.04;100.00;96650.69;5050551;28;20222;-75
2022/09/22 01:13:22;;;;;;;4.27;2.80;;;;;;;10.03;100.00;96659.88;5055581;28;20213;-76
2022/09/22 01:16:00;;;;;;;4.17;2.77;;;;;;;10.05;100.00;96652.34;5057098;28;20229;-76
2022/09/22 01:18:40;;;;;;;6.27;2.40;;;;;;;10.06;100.00;96659.41;5051275;28;20266;-76
2022/09/22 01:21:19;;;;;;;3.90;2.63;;;;;;;9.97;100.00;96652.63;5053094;28;20206;-77
2022/09/22 01:24:32;;;;;;;5.63;2.87;;;;;;;9.95;100.00;96657.44;5052486;28;20232;-76
2022/09/22 01:27:23;;;;;;;5.83;2.70;;;;;;;9.94;100.00;96647.69;5046421;28;20210;-76
2022/09/22 01:30:25;;;;;;;3.37;2.60;;;;;;;9.94;100.00;96659.31;5051664;28;20202;-76
2022/09/22 01:33:30;;;;;;;4.63;2.63;;;;;;;9.87;100.00;96656.63;5054833;28;20213;-74
2022/09/22 01:36:15;;;;;;;3.73;2.70;;;;;;;9.78;100.00;96649.84;5046284;28;20210;-76
2022/09/22 01:38:54;;;;;;;4.73;2.90;;;;;;;9.74;100.00;96645.13;5055918;28;20214;-76
2022/09/22 01:41:41;;;;;;;3.00;2.73;;;;;;;9.71;100.00;96649.06;5055576;28;20205;-77
2022/09/22 01:44:15;;;;;;;4.87;2.80;;;;;;;9.71;100.00;96653.63;5057606;28;20213;-76
2022/09/22 01:46:54;;;;;;;3.27;2.60;;;;;;;9.70;100.00;96652.81;5046306;28;20224;-76
2022/09/22 01:49:23;;;;;;;4.73;2.60;;;;;;;9.65;100.00;96644.56;5050753;28;20210;-76
2022/09/22 01:51:54;;;;;;;6.67;3.30;;;;;;;9.67;100.00;96647.88;5050454;28;20206;-76
2022/09/22 01:54:26;;;;;;;3.00;2.70;;;;;;;9.66;100.00;96645.38;5046096;28;20202;-76
2022/09/22 01:57:00;;;;;;;4.07;2.67;;;;;;;9.61;100.00;96645.22;5049516;28;20267;-76
2022/09/22 01:59:32;;;;;;;3.07;2.63;;;;;;;9.63;100.00;96646.63;5059301;28;20231;-76
2022/09/22 02:02:04;;;;;;;3.97;2.87;;;;;;;9.56;100.00;96643.16;5050898;28;20233;-76
2022/09/22 02:04:37;;;;;;;4.33;2.67;;;;;;;9.43;100.00;96640.56;5049679;28;20210;-76
2022/09/22 02:07:07;;;;;;;3.50;2.43;;;;;;;9.34;100.00;96645.38;5054420;28;20204;-76
2022/09/22 02:09:36;;;;;;;3.13;2.77;;;;;;;9.32;100.00;96635.84;5062135;28;20298;-76
2022/09/22 02:12:04;;;;;;;3.97;3.07;;;;;;;9.34;100.00;96641.84;5052575;28;20198;-76
2022/09/22 02:14:31;;;;;;;5.13;3.00;;;;;;;9.27;100.00;96651.84;5049008;28;20202;-76
2022/09/22 02:16:59;;;;;;;4.63;2.60;;;;;;;9.24;100.00;96641.47;5048780;28;20202;-76
2022/09/22 02:19:33;;;;;;;3.33;2.83;;;;;;;9.23;100.00;96642.50;5056647;28;20205;-74
2022/09/22 02:22:01;;;;;;;4.47;3.13;;;;;;;9.23;100.00;96647.91;5051190;28;20247;-76
2022/09/22 02:24:29;;;;;;;3.20;2.83;;;;;;;9.23;100.00;96645.19;5050552;28;20208;-76
2022/09/22 02:26:58;;;;;;;4.70;2.73;;;;;;;9.16;100.00;96639.03;5047353;28;20233;-76
2022/09/22 02:29:30;;;;;;;4.33;2.67;;;;;;;9.05;100.00;96638.66;5046504;28;20206;-74
2022/09/22 02:31:58;;;;;;;3.83;2.93;;;;;;;9.01;100.00;96629.34;5048051;28;20198;-76
2022/09/22 02:34:25;;;;;;;5.40;2.50;;;;;;;9.08;100.00;96632.84;5057689;28;20209;-76
2022/09/22 02:37:02;;;;;;;2.90;2.60;;;;;;;9.16;100.00;96634.47;5049948;28;20210;-76
2022/09/22 02:39:38;;;;;;;2.90;2.57;;;;;;;9.15;100.00;96616.63;5047518;28;20206;-76
2022/09/22 02:42:22;;;;;;;7.50;2.83;;;;;;;9.16;100.00;96622.84;5052490;28;20232;-76
2022/09/22 02:44:56;;;;;;;4.13;2.30;;;;;;;9.17;100.00;96627.22;5063008;28;20261;-77
2022/09/22 02:47:31;;;;;;;5.57;3.50;;;;;;;9.11;100.00;96621.63;5053259;28;20201;-76
2022/09/22 02:49:59;;;;;;;3.43;2.90;;;;;;;9.11;100.00;96618.94;5054696;28;20201;-76
2022/09/22 02:52:27;;;;;;;3.53;2.90;;;;;;;9.15;100.00;96616.63;5049663;28;20298;-76
2022/09/22 02:54:54;;;;;;;2.87;2.57;;;;;;;9.09;100.00;96615.66;5050282;28;20202;-76
2022/09/22 02:57:22;;;;;;;3.53;2.37;;;;;;;9.15;100.00;96608.56;5052519;28;20279;-76
2022/09/22 02:59:49;;;;;;;2.70;2.50;;;;;;;9.18;100.00;96608.16;5056691;28;20202;-74
2022/09/22 03:02:16;;;;;;;3.90;2.90;;;;;;;9.19;100.00;96608.94;5054201;28;20206;-76
2022/09/22 03:04:43;;;;;;;4.77;3.10;;;;;;;9.11;100.00;96602.75;5056087;28;20202;-76
2022/09/22 03:07:11;;;;;;;5.97;3.00;;;;;;;9.16;100.00;96606.69;5057697;28;20259;-76
2022/09/22 03:09:39;;;;;;;4.93;2.97;;;;;;;9.04;100.00;96611.91;5059621;28;20198;-76
2022/09/22 03:12:07;;;;;;;3.53;2.70;;;;;;;9.07;100.00;96616.88;5048764;28;20210;-76
2022/09/22 03:14:33;;;;;;;2.97;2.50;;;;;;;9.03;100.00;96612.97;5056498;28;20194;-75
2022/09/22 03:17:00;;;;;;;3.13;2.73;;;;;;;8.98;100.00;96613.63;5058432;28;20353;-72
2022/09/22 03:19:27;;;;;;;5.87;3.30;;;;;;;8.93;100.00;96612.59;5053395;28;20228;-73
2022/09/22 03:21:54;;;;;;;4.33;3.40;;;;;;;8.86;100.00;96609.91;5053382;28;20242;-73
2022/09/22 03:24:21;;;;;;;2.70;2.50;;;;;;;8.93;100.00;96620.69;5049829;28;20210;-76
2022/09/22 03:26:50;;;;;;;5.23;2.83;;;;;;;8.91;100.00;96609.28;5059514;28;20235;-76
2022/09/22 03:29:17;;;;;;;6.77;2.80;;;;;;;8.84;100.00;96611.19;5052972;28;20213;-76
2022/09/22 03:31:44;;;;;;;6.43;2.83;;;;;;;8.78;100.00;96610.16;5058274;28;20231;-75
2022/09/22 03:34:11;;;;;;;3.27;2.83;;;;;;;8.77;100.00;96605.81;5056953;28;20251;-76
2022/09/22 03:36:38;;;;;;;3.97;2.80;;;;;;;8.77;100.00;96604.97;5052535;28;20214;-76
2022/09/22 03:39:05;;;;;;;5.33;2.70;;;;;;;8.72;100.00;96611.84;5049705;28;20200;-76
2022/09/22 03:41:32;;;;;;;3.37;3.07;;;;;;;8.67;100.00;96610.84;5053386;28;20202;-76
2022/09/22 03:44:01;;;;;;;4.40;3.00;;;;;;;8.67;100.00;96613.53;5057114;28;20273;-76
2022/09/22 03:46:29;;;;;;;3.00;2.70;;;;;;;8.65;100.00;96610.22;5052087;28;20249;-76
2022/09/22 03:48:56;;;;;;;4.70;2.70;;;;;;;8.65;100.00;96608.34;5058309;28;20277;-76
2022/09/22 03:51:23;;;;;;;3.20;2.90;;;;;;;8.65;100.00;96618.28;5055880;28;20204;-76
2022/09/22 03:53:50;;;;;;;3.03;2.60;;;;;;;8.64;100.00;96624.72;5060603;28;20230;-75
2022/09/22 03:56:17;;;;;;;3.47;2.80;;;;;;;8.67;100.00;96621.59;5057679;28;20190;-76
2022/09/22 03:58:44;;;;;;;3.90;2.90;;;;;;;8.70;100.00;96622.00;5054798;28;20225;-76
2022/09/22 04:01:12;;;;;;;4.90;3.33;;;;;;;8.71;100.00;96623.66;5051442;28;20305;-76
2022/09/22 04:03:39;;;;;;;6.97;4.70;;;;;;;8.68;100.00;96625.91;5054301;28;20302;-76
2022/09/22 04:06:07;;;;;;;5.47;3.00;;;;;;;8.65;100.00;96621.81;5049608;28;20225;-76
2022/09/22 04:08:34;;;;;;;4.47;3.20;;;;;;;8.64;100.00;96627.41;5053219;28;20210;-76
2022/09/22 04:11:02;;;;;;;5.00;3.70;;;;;;;8.55;100.00;96632.19;5055673;28;20313;-76
2022/09/22 04:13:29;;;;;;;7.40;4.17;;;;;;;8.53;100.00;96630.72;5055377;28;20255;-76
2022/09/22 04:15:56;;;;;;;3.97;3.40;;;;;;;8.49;100.00;96630.34;5053549;28;20229;-76
2022/09/22 04:18:25;;;;;;;5.30;3.40;;;;;;;8.45;100.00;96631.78;5056444;28;20210;-76
2022/09/22 04:20:56;;;;;;;6.00;3.47;;;;;;;8.42;100.00;96634.88;5072332;28;20303;-75
2022/09/22 04:23:24;;;;;;;4.57;3.33;;;;;;;8.40;100.00;96645.06;5051993;28;20229;-76
2022/09/22 04:25:51;;;;;;;2.90;2.70;;;;;;;8.43;100.00;96646.47;5055661;28;20233;-77
2022/09/22 04:28:19;;;;;;;4.23;3.43;;;;;;;8.41;100.00;96648.56;5055646;28;20221;-74
2022/09/22 04:30:47;;;;;;;4.07;3.43;;;;;;;8.38;100.00;96648.97;5054697;28;20197;-75
2022/09/22 04:33:14;;;;;;;4.07;3.50;;;;;;;8.40;100.00;96654.97;5054834;28;20228;-76
2022/09/22 04:35:43;;;;;;;5.57;3.10;;;;;;;8.40;100.00;96654.97;5062013;28;20208;-76
2022/09/22 04:38:10;;;;;;;5.73;3.10;;;;;;;8.38;100.00;96657.88;5053843;28;20210;-76
2022/09/22 04:40:37;;;;;;;14.93;10.63;;;;;;;8.32;100.00;96656.88;5046772;28;20206;-75
2022/09/22 04:43:04;;;;;;;4.83;3.00;;;;;;;8.28;100.00;96658.25;5050985;28;20225;-76
2022/09/22 04:45:31;;;;;;;3.90;3.30;;;;;;;8.27;100.00;96664.69;5051628;28;20204;-78
2022/09/22 04:47:58;;;;;;;3.17;2.83;;;;;;;8.27;100.00;96662.00;5050928;28;20206;-78
2022/09/22 04:50:26;;;;;;;3.93;3.00;;;;;;;8.27;100.00;96664.69;5059770;28;20222;-75
2022/09/22 04:52:56;;;;;;;3.83;3.43;;;;;;;8.26;100.00;96670.25;5056629;28;20198;-76
2022/09/22 04:55:24;;;;;;;3.43;2.83;;;;;;;8.25;100.00;96674.81;5056292;28;20197;-76
2022/09/22 04:57:52;;;;;;;4.03;3.07;;;;;;;8.30;100.00;96677.72;5060046;28;20268;-76
2022/09/22 05:00:20;;;;;;;3.50;3.20;;;;;;;8.29;100.00;96676.06;5056519;28;20202;-75
2022/09/22 05:02:47;;;;;;;2.87;2.60;;;;;;;8.32;100.00;96686.47;5056531;28;20225;-74
2022/09/22 05:05:15;;;;;;;3.03;2.70;;;;;;;8.33;100.00;96685.44;5052584;28;20263;-75
2022/09/22 05:07:43;;;;;;;4.20;2.80;;;;;;;8.36;100.00;96686.84;5053466;28;20248;-76
2022/09/22 05:10:12;;;;;;;5.97;3.37;;;;;;;8.24;100.00;96677.75;5051625;28;20221;-75
2022/09/22 05:12:40;;;;;;;5.43;2.80;;;;;;;8.14;100.00;96669.25;5053127;28;20297;-76
2022/09/22 05:15:08;;;;;;;6.47;3.20;;;;;;;8.14;100.00;96675.47;5057675;28;20218;-76
2022/09/22 05:17:36;;;;;;;5.30;2.93;;;;;;;8.11;100.00;96677.72;5046020;28;20199;-75
2022/09/22 05:20:04;;;;;;;4.47;3.17;;;;;;;8.04;100.00;96679.59;5062451;28;20243;-75
2022/09/22 05:22:31;;;;;;;4.10;3.57;;;;;;;8.03;100.00;96684.13;5048849;28;20236;-76
2022/09/22 05:24:58;;;;;;;5.27;3.03;;;;;;;8.05;100.00;96689.31;5056508;28;20214;-75
2022/09/22 05:27:27;;;;;;;5.77;3.50;;;;;;;8.06;100.00;96691.81;5051795;28;20227;-76
2022/09/22 05:29:54;;;;;;;4.53;3.17;;;;;;;7.99;100.00;96686.41;5047053;28;20206;-76
2022/09/22 05:32:21;;;;;;;4.73;2.90;;;;;;;8.00;100.00;96695.28;5054428;28;20208;-76
2022/09/22 05:34:48;;;;;;;3.70;3.30;;;;;;;8.02;100.00;96695.91;5049385;28;20190;-76
2022/09/22 05:37:15;;;;;;;3.40;2.90;;;;;;;8.11;100.00;96705.44;5053771;28;20234;-76
2022/09/22 05:39:42;;;;;;;6.17;3.10;;;;;;;8.11;100.00;96700.06;5049734;28;20218;-74
2022/09/22 05:42:09;;;;;;;5.40;3.30;;;;;;;8.14;100.00;96699.66;5047936;28;20190;-76
2022/09/22 05:44:37;;;;;;;3.27;2.80;;;;;;;8.09;100.00;96701.28;5072936;28;20206;-76
2022/09/22 05:47:04;;;;;;;7.53;3.40;;;;;;;8.08;100.00;96694.28;5053814;28;20225;-76
2022/09/22 05:49:31;;;;;;;6.07;3.20;;;;;;;8.09;100.00;96702.13;5052426;28;20224;-76
2022/09/22 05:51:58;;;;;;;6.30;3.20;;;;;;;8.09;100.00;96702.13;5049624;28;20206;-76
2022/09/22 05:54:26;;;;;;;4.97;2.80;;;;;;;8.14;100.00;96702.34;5048449;28;20201;-75
2022/09/22 05:56:53;;;;;;;4.40;3.30;;;;;;;8.13;100.00;96699.88;5062335;28;20231;-73
2022/09/22 05:59:20;;;;;;;8.63;3.60;;;;;;;8.03;100.00;96692.19;5047133;28;20202;-75
2022/09/22 06:01:48;;;;;;;3.30;3.00;;;;;;;8.09;100.00;96702.13;5054802;28;20206;-76
2022/09/22 06:04:15;;;;;;;3.73;2.63;;;;;;;8.00;100.00;96692.59;5061139;28;20209;-76
2022/09/22 06:06:43;;;;;;;3.83;3.03;;;;;;;8.01;100.00;96694.25;5052546;28;20221;-76
2022/09/22 06:09:10;;;;;;;5.20;3.20;;;;;;;8.05;100.00;96692.84;5057238;28;20251;-75
2022/09/22 06:11:37;;;;;;;5.37;3.20;;;;;;;8.02;100.00;96687.84;5061563;28;20201;-76
2022/09/22 06:14:04;;;;;;;5.00;3.37;;;;;;;8.13;100.00;96698.00;5046101;28;20237;-74
2022/09/22 06:16:31;;;;;;;4.77;2.73;;;;;;;8.16;100.00;96702.16;5056085;28;20267;-76
2022/09/22 06:19:00;;;;;;;4.63;2.70;;;;;;;8.18;100.00;96698.19;5055282;28;20205;-75
2022/09/22 06:21:27;;;;;;;5.23;2.90;;;;;;;8.21;100.00;96695.13;5054165;28;20213;-76
2022/09/22 06:23:56;;;;;;;5.07;3.07;;;;;;;8.26;100.00;96698.00;5058736;28;20203;-75
2022/09/22 06:26:23;;;;;;;3.50;2.80;;;;;;;8.25;100.00;96693.66;5062203;28;20225;-76
2022/09/22 06:28:50;;;;;;;3.60;3.03;;;;;;;8.18;100.00;96690.13;5059057;28;20215;-76
2022/09/22 06:31:17;;;;;;;4.43;2.73;;;;;;;8.16;100.00;96686.84;5058530;28;20208;-76
2022/09/22 06:33:47;;;;;;;4.43;3.20;;;;;;;8.20;100.00;96685.38;5054137;28;20237;-75
2022/09/22 06:36:22;;;;;;;3.67;3.00;;;;;;;8.25;100.00;96690.97;5056059;28;20201;-75
2022/09/22 06:38:51;;;;;;;3.17;2.80;;;;;;;8.32;100.00;96689.16;5064367;28;20232;-76
2022/09/22 06:41:18;;;;;;;5.47;2.73;;;;;;;8.35;100.00;96686.03;5049025;28;20210;-76
2022/09/22 06:43:46;;;;;;;2.93;2.50;;;;;;;8.39;100.00;96683.75;5056570;28;20202;-78
2022/09/22 06:46:17;;;;;;;3.37;2.67;;;;;;;8.47;100.00;96682.72;5053154;28;20221;-78
2022/09/22 06:48:45;;;;;;;7.27;2.80;;;;;;;8.54;100.00;96678.16;5053126;28;20205;-78
2022/09/22 06:51:12;;;;;;;5.13;3.70;;;;;;;8.53;100.00;96671.09;5049790;28;20205;-78
2022/09/22 06:53:41;;;;;;;5.43;3.40;;;;;;;8.61;100.00;96673.56;5063248;28;20198;-77
2022/09/22 06:56:08;;;;;;;6.00;2.97;;;;;;;8.61;100.00;96668.19;5056907;28;20202;-78
2022/09/22 06:58:36;;;;;;;4.83;2.80;;;;;;;8.65;100.00;96666.75;5059927;28;20210;-77
2022/09/22 07:01:04;;;;;;;3.60;2.60;;;;;;;8.59;100.00;96654.94;5051451;28;20214;-77
2022/09/22 07:03:33;;;;;;;4.10;2.77;;;;;;;8.67;100.00;96667.38;5052919;28;20205;-77
2022/09/22 07:06:02;;;;;;;5.93;2.93;;;;;;;8.70;100.00;96675.84;5051009;28;20208;-78
2022/09/22 07:08:31;;;;;;;2.83;2.50;;;;;;;8.71;100.00;96673.97;5049958;28;20226;-77
2022/09/22 07:11:01;;;;;;;3.70;2.50;;;;;;;8.69;100.00;96668.78;5067661;28;20256;-78
2022/09/22 07:13:30;;;;;;;3.53;2.80;;;;;;;8.61;100.00;96662.81;5051138;28;20292;-76
2022/09/22 07:16:00;;;;;;;2.73;2.40;;;;;;;8.61;100.00;96666.31;5051158;28;20217;-76
2022/09/22 07:18:27;;;;;;;4.73;2.63;;;;;;;8.61;100.00;96657.41;5052675;28;20209;-77
2022/09/22 07:21:01;;;;;;;3.60;2.60;;;;;;;8.75;100.00;96669.00;5068406;28;20228;-78
2022/09/22 07:23:29;;;;;;;4.03;2.70;;;;;;;8.78;100.00;96653.22;5051587;28;20225;-76
2022/09/22 07:26:02;;;;;;;2.63;2.43;;;;;;;8.76;100.00;96663.41;5063687;28;20217;-77
2022/09/22 07:28:33;;;;;;;4.07;2.87;;;;;;;8.76;100.00;96665.28;5052998;28;20263;-77
2022/09/22 07:31:02;;;;;;;3.40;2.50;;;;;;;8.76;100.00;96662.59;5049495;28;20190;-78
2022/09/22 07:33:29;;;;;;;5.67;3.00;;;;;;;8.80;100.00;96661.09;5045355;28;20221;-78
2022/09/22 07:36:07;;;;;;;2.87;2.57;;;;;;;8.83;100.00;96661.53;5054687;28;20229;-78
2022/09/22 07:38:35;;;;;;;3.10;2.20;;;;;;;8.85;100.00;96662.13;5051400;28;20213;-78
2022/09/22 07:41:04;;;;;;;4.07;2.77;;;;;;;8.84;100.00;96660.50;5053662;28;20205;-78
2022/09/22 07:43:32;;;;;;;3.13;2.33;;;;;;;8.80;100.00;96656.56;5049750;28;20203;-77
2022/09/22 07:46:00;;;;;;;3.30;2.57;;;;;;;8.78;100.00;96652.41;5051382;28;20210;-78
2022/09/22 07:48:41;;;;;;;2.80;2.37;;;;;;;8.76;100.00;96655.34;5047021;28;20222;-78
2022/09/22 07:51:11;;;;;;;3.13;2.20;;;;;;;8.80;100.00;96656.56;5055982;28;20281;-77
2022/09/22 07:53:39;;;;;;;3.80;2.47;;;;;;;8.84;100.00;96651.59;5058885;28;20206;-77
2022/09/22 07:56:11;;;;;;;3.17;2.10;;;;;;;8.89;100.00;96649.91;5056987;28;20222;-78
2022/09/22 07:58:43;;;;;;;4.03;2.20;;;;;;;8.91;100.00;96655.06;5055597;28;20293;-77
2022/09/22 08:01:11;;;;;;;2.80;2.23;;;;;;;8.89;100.00;96646.38;5056652;28;20252;-76
2022/09/22 08:03:38;;;;;;;2.50;2.30;;;;;;;8.86;100.00;96641.41;5054980;28;20205;-77
2022/09/22 08:06:10;;;;;;;5.07;2.60;;;;;;;8.87;100.00;96637.69;5057215;28;20208;-77
2022/09/22 08:08:38;;;;;;;4.17;2.57;;;;;;;8.93;100.00;96645.72;5053506;28;20229;-77
2022/09/22 08:11:12;;;;;;;3.67;2.20;;;;;;;8.93;100.00;96643.03;5051382;28;20213;-77
2022/09/22 08:13:42;;;;;;;2.40;2.20;;;;;;;9.10;100.00;96643.41;5054215;28;20210;-77
2022/09/22 08:16:10;;;;;;;2.27;2.07;;;;;;;9.43;100.00;96637.84;5055400;28;20242;-77
2022/09/22 08:18:38;;;;;;;2.60;2.40;;;;;;;9.71;100.00;96648.25;5048875;28;20194;-78
2022/09/22 08:21:06;;;;;;;2.03;1.80;;;;;;;9.91;100.00;96635.47;5059922;28;20206;-78
2022/09/22 08:23:33;;;;;;;2.50;1.93;;;;;;;10.16;100.00;96644.38;5063014;28;20258;-77
2022/09/22 08:26:04;;;;;;;2.57;2.00;;;;;;;10.39;100.00;96635.69;5062414;28;20206;-78
2022/09/22 08:28:32;;;;;;;2.53;2.00;;;;;;;10.63;100.00;96632.13;5058279;28;20240;-78
2022/09/22 08:31:00;;;;;;;2.23;2.03;;;;;;;10.87;100.00;96633.13;5052443;28;20221;-78
2022/09/22 08:33:30;;;;;;;4.40;2.43;;;;;;;11.08;100.00;96622.91;5049578;28;20230;-78
2022/09/22 08:36:02;;;;;;;4.43;2.07;;;;;;;11.37;100.00;96632.94;5050428;28;20264;-78
2022/09/22 08:38:31;;;;;;;3.73;2.00;;;;;;;11.64;100.00;96630.69;5048634;28;20217;-78
2022/09/22 08:41:17;;;;;;;3.60;2.03;;;;;;;11.73;100.00;96632.84;5054178;28;20284;-77
2022/09/22 08:43:46;;;;;;;2.43;1.93;;;;;;;11.93;100.00;96632.56;5048882;28;20209;-78
2022/09/22 08:46:16;;;;;;;4.07;2.33;;;;;;;12.19;100.00;96625.09;5056718;28;20209;-78
2022/09/22 08:51:53;;;;;;;4.20;2.80;;;;;;;12.43;100.00;96618.63;5061480;28;20209;-77
2022/09/22 08:54:25;;;;;;;3.47;2.70;;;;;;;12.80;100.00;96627.34;5058821;28;20284;-76
2022/09/22 08:57:10;;;;;;;4.60;2.70;;;;;;;13.14;100.00;96622.94;5057626;28;20212;-77
2022/09/22 08:59:45;;;;;;;3.80;2.57;;;;;;;13.49;100.00;96623.66;5054633;28;20205;-77
2022/09/22 09:02:34;;;;;;;4.90;2.80;;;;;;;13.78;99.09;96618.25;5045838;28;20205;-76
2022/09/22 09:05:30;;;;;;;6.43;3.07;;;;;;;14.08;96.73;96615.22;5047849;28;20208;-76
2022/09/22 09:08:03;;;;;;;5.83;3.00;;;;;;;14.19;94.02;96620.59;5054534;28;20244;-77
2022/09/22 09:10:45;;;;;;;5.17;2.90;;;;;;;14.25;93.65;96624.19;5052745;28;20221;-78
2022/09/22 09:19:44;;;;;;;3.33;2.83;;;;;;;14.41;94.11;96619.88;5107828;27;20601;-77
2022/09/22 09:31:45;;;;;;;;;;;;;;;21.04;87.83;96627.44;5065130;27;20441;-43
2022/09/22 09:35:46;;;;;;;9.65;2.13;;;;;;;21.99;nan;67264.31;5095665;27;20466;-32
2022/09/22 09:38:15;;;;;;;;;;;;;;;22.11;nan;67255.19;5080690;28;20471;-34
2022/09/22 09:40:43;;;;;;;7.10;2.70;;;;;;;22.18;nan;67249.09;5092252;28;20462;-34
2022/09/22 09:43:10;;;;;;;7.53;2.47;;;;;;;22.09;nan;67253.66;5078941;28;20208;-36
2022/09/22 09:45:50;;;;;;;4.68;2.63;;;;;;;21.94;nan;67267.38;5084182;28;20228;-35
2022/09/22 09:48:27;;;;;;;9.35;1.80;;;;;;;22.05;nan;67258.22;5084927;28;20197;-37
2022/09/22 09:51:01;;;;;;;7.55;2.17;;;;;;;22.13;nan;67242.94;5094276;28;20227;-36
2022/09/22 09:53:32;;;;;;;7.10;2.25;;;;;;;22.13;nan;67239.88;5109709;27;20295;-39
2022/09/22 09:55:59;;;;;;;6.15;2.35;;;;;;;21.98;nan;67258.19;5091721;28;20208;-35
2022/09/22 10:01:14;;;;;;;6.90;2.35;;;;;;;21.76;nan;67274.97;5083203;28;20200;-44
2022/09/22 10:03:53;;;;;;;4.28;1.80;;;;;;;21.73;nan;67279.53;5090678;28;20189;-42
2022/09/22 10:06:25;;;;;;;11.43;1.70;;;;;;;21.69;nan;67278.00;5087118;28;20202;-43
2022/09/22 10:08:52;;;;;;;4.85;1.80;;;;;;;21.65;nan;67282.59;5074329;28;21496;-44
2022/09/22 10:11:29;;;;;;;2.35;1.98;;;;;;;21.65;nan;67284.09;5083366;28;20228;-43
2022/09/22 10:13:57;;;;;;;4.47;2.00;;;;;;;21.66;nan;67279.53;5085120;28;20220;-42
2022/09/22 10:16:25;;;;;;;7.10;2.33;;;;;;;21.59;nan;67282.56;5094821;28;20200;-44
2022/09/22 10:19:04;;;;;;;5.13;2.22;;;;;;;21.60;nan;67281.03;5069912;28;20263;-43
2022/09/22 10:21:35;;;;;;;4.03;2.20;;;;;;;21.55;nan;67282.53;5076732;28;20221;-43
2022/09/22 10:24:21;;;;;;;6.40;2.03;;;;;;;21.54;nan;67282.53;5092354;28;20205;-43
2022/09/22 10:26:54;;;;;;;4.57;2.00;;;;;;;21.54;nan;67281.00;5078832;28;20200;-42
2022/09/22 10:29:21;;;;;;;4.00;2.17;;;;;;;21.55;nan;67281.00;5085186;28;20289;-44
2022/09/22 10:32:12;;;;;;;8.23;2.10;;;;;;;21.52;nan;67281.00;5083072;28;20204;-42
2022/09/22 10:34:42;;;;;;;4.25;2.05;;;;;;;21.51;nan;67281.00;5082800;28;20233;-43
2022/09/22 10:37:13;;;;;;;3.63;1.92;;;;;;;21.50;nan;67277.94;5104742;28;20235;-42
2022/09/22 10:39:44;;;;;;;3.13;2.00;;;;;;;21.52;nan;67279.47;5099964;28;20208;-43
2022/09/22 10:42:33;;;;;;;3.50;2.00;;;;;;;21.51;nan;67276.41;5103076;28;20219;-42
2022/09/22 10:45:05;;;;;;;6.05;2.45;;;;;;;21.52;nan;67270.28;5106019;27;20201;-42
2022/09/22 10:47:39;;;;;;;3.95;2.08;;;;;;;21.52;nan;67268.75;5077355;28;20300;-42
2022/09/22 10:50:44;;;;;;;6.03;2.20;;;;;;;21.49;nan;67273.34;5091545;28;20200;-43
2022/09/22 10:54:05;;;;;;;3.33;2.10;;;;;;;21.49;nan;67273.34;5079700;28;20225;-43
2022/09/22 10:56:37;;;;;;;3.25;2.35;;;;;;;21.48;nan;67279.47;5054613;28;20219;-43
2022/09/22 10:59:31;;;;;;;3.40;2.13;;;;;;;21.49;nan;67273.34;5083369;28;20198;-43
2022/09/22 11:02:19;;;;;;;2.25;1.75;;;;;;;21.46;nan;67273.31;5071508;28;20204;-43
2022/09/22 11:04:59;;;;;;;2.50;1.90;;;;;;;21.49;nan;67267.22;5075919;28;20210;-41
2022/09/22 11:13:47;;;;;;;2.63;1.73;;;;;;;21.52;nan;67264.16;5083860;28;20206;-42
2022/09/22 11:16:48;;;;;;;2.10;1.90;;;;;;;21.51;nan;67267.22;5088591;28;20224;-41
2022/09/22 11:19:33;;;;;;;2.88;2.00;;;;;;;21.45;nan;67273.31;5003911;28;20212;-43
2022/09/22 11:22:18;;;;;;;2.70;1.88;;;;;;;21.48;nan;67262.63;5105054;28;20229;-43
2022/09/22 11:24:59;;;;;;;2.10;1.90;;;;;;;21.50;nan;67261.09;5079475;28;20196;-42
2022/09/22 11:27:38;;;;;;;2.13;1.60;;;;;;;21.50;nan;67259.56;5096159;28;20200;-42
2022/09/22 11:30:15;;;;;;;1.80;1.52;;;;;;;21.49;nan;67262.63;5084881;28;20227;-43
2022/09/22 11:33:19;;;;;;;4.78;1.70;;;;;;;21.52;nan;67254.97;5088801;28;20238;-42
2022/09/22 11:36:00;;;;;;;1.90;1.70;;;;;;;21.50;nan;67261.09;5076024;28;20322;-43
2022/09/22 11:38:58;;;;;;;2.30;1.92;;;;;;;21.53;nan;67254.97;5073678;28;20207;-43
2022/09/22 11:41:30;;;;;;;3.95;2.13;;;;;;;21.53;nan;67254.97;5074365;28;20226;-41
2022/09/22 11:44:16;;;;;;;2.38;1.85;;;;;;;21.54;nan;67251.94;5075859;28;20205;-43
2022/09/22 11:46:55;;;;;;;2.15;1.80;;;;;;;21.53;nan;67251.91;5075094;28;20203;-43
2022/09/22 11:49:40;;;;;;;2.38;1.70;;;;;;;21.57;nan;67248.88;5084075;28;20213;-43
2022/09/22 11:52:21;;;;;;;2.47;1.70;;;;;;;21.58;nan;67245.81;5078655;28;20208;-43
2022/09/22 11:55:03;;;;;;;3.65;1.63;;;;;;;21.58;nan;67242.75;5076710;28;20221;-42
2022/09/22 11:57:35;;;;;;;2.53;1.60;;;;;;;21.65;nan;67239.72;5075811;28;20199;-43
2022/09/22 12:00:11;;;;;;;1.77;1.65;;;;;;;21.62;nan;67238.19;5075452;28;20198;-43
2022/09/22 12:02:46;;;;;;;2.15;1.70;;;;;;;21.64;nan;67236.66;5077310;28;20243;-41
2022/09/22 12:05:19;;;;;;;1.50;1.40;;;;;;;21.65;nan;67232.06;5074805;28;20500;-43
2022/09/22 12:07:52;;;;;;;2.88;1.42;;;;;;;21.68;nan;67230.53;5075470;28;20206;-41
2022/09/22 12:10:27;;;;;;;1.40;1.30;;;;;;;21.71;nan;67230.56;5075797;28;20339;-43
2022/09/22 12:12:55;;;;;;;1.85;1.55;;;;;;;21.70;nan;67227.50;5095135;27;20204;-43
2022/09/22 12:15:29;;;;;;;3.53;1.60;;;;;;;21.73;nan;67224.44;5076252;28;20275;-43
2022/09/22 12:18:08;;;;;;;1.55;1.45;;;;;;;21.77;nan;67215.28;5074735;28;20220;-42
2022/09/22 12:20:47;;;;;;;3.10;1.65;;;;;;;21.79;nan;67219.88;5083350;28;20232;-42
2022/09/22 12:23:27;;;;;;;1.60;1.50;;;;;;;21.81;nan;67210.69;5083271;28;20433;-42
2022/09/22 12:25:56;;;;;;;2.88;1.67;;;;;;;21.83;nan;67209.16;5083047;28;20208;-43
2022/09/22 12:28:25;;;;;;;1.88;1.55;;;;;;;21.84;nan;67209.16;5074924;28;20205;-43